Time;durP1;ratioP1;P1;durP2;ratioP2;P2;SDS_P1;SDS_P2;PMS_P1;PMS_P2;Temp;Humidity;BMP_temperature;BMP_pressure;BME280_temperature;BME280_humidity;BME280_pressure;Samples;Min_cycle;Max_cycle;Signal;HPM_P1;HPM_P2
2023/10/16 00:02:16;;;;;;;7.78;3.33;;;;;;;;;;5092272;28;20419;-58
2023/10/16 00:04:44;;;;;;;7.07;3.78;;;;;;;;;;5110564;28;20044;-54
2023/10/16 00:07:13;;;;;;;6.32;3.42;;;;;;;;;;5109435;28;20051;-55
2023/10/16 00:09:40;;;;;;;6.18;3.35;;;;;;;;;;5105618;28;20518;-53
2023/10/16 00:12:07;;;;;;;5.57;3.13;;;;;;;;;;5091052;28;20044;-52
2023/10/16 00:14:35;;;;;;;6.32;3.10;;;;;;;;;;5103149;28;20157;-56
2023/10/16 00:17:03;;;;;;;9.10;3.38;;;;;;;;;;5108725;28;20071;-54
2023/10/16 00:19:33;;;;;;;6.15;3.65;;;;;;;;;;5110829;28;20435;-56
2023/10/16 00:22:00;;;;;;;7.78;3.53;;;;;;;;;;5111487;28;20130;-59
2023/10/16 00:24:28;;;;;;;5.43;2.83;;;;;;;;;;5107347;28;20052;-58
2023/10/16 00:26:55;;;;;;;5.68;3.10;;;;;;;;;;5091474;28;20762;-56
2023/10/16 00:29:23;;;;;;;5.57;3.20;;;;;;;;;;5094778;28;20056;-57
2023/10/16 00:31:52;;;;;;;7.85;3.60;;;;;;;;;;5111409;28;20131;-59
2023/10/16 00:34:20;;;;;;;5.53;3.33;;;;;;;;;;5111247;28;20047;-58
2023/10/16 00:36:47;;;;;;;6.70;3.83;;;;;;;;;;5111460;28;20044;-57
2023/10/16 00:39:14;;;;;;;7.30;3.33;;;;;;;;;;5111533;28;20135;-58
2023/10/16 00:41:40;;;;;;;5.75;2.97;;;;;;;;;;5111340;28;20100;-55
2023/10/16 00:44:07;;;;;;;7.22;3.42;;;;;;;;;;5110090;28;20127;-58
2023/10/16 00:46:36;;;;;;;6.43;3.00;;;;;;;;;;5107078;28;20055;-59
2023/10/16 00:49:06;;;;;;;7.28;3.25;;;;;;;;;;5112662;28;20048;-59
2023/10/16 00:51:33;;;;;;;7.30;3.47;;;;;;;;;;5115170;28;20095;-58
2023/10/16 00:54:02;;;;;;;5.38;2.90;;;;;;;;;;5114830;28;20070;-59
2023/10/16 00:56:29;;;;;;;6.25;3.22;;;;;;;;;;5115093;28;20499;-54
2023/10/16 00:58:57;;;;;;;5.72;3.70;;;;;;;;;;5114978;28;20048;-57
2023/10/16 01:01:25;;;;;;;5.88;3.33;;;;;;;;;;5114175;28;20044;-57
2023/10/16 01:03:57;;;;;;;8.93;3.30;;;;;;;;;;5111822;28;20149;-54
2023/10/16 01:06:31;;;;;;;6.32;3.45;;;;;;;;;;5110925;28;20047;-53
2023/10/16 01:08:58;;;;;;;6.05;3.22;;;;;;;;;;5106242;28;20052;-55
2023/10/16 01:11:26;;;;;;;6.85;3.30;;;;;;;;;;5098534;28;20465;-58
2023/10/16 01:13:54;;;;;;;6.82;3.33;;;;;;;;;;5114548;28;20051;-58
2023/10/16 01:16:21;;;;;;;7.28;3.58;;;;;;;;;;5112743;28;20043;-55
2023/10/16 01:18:47;;;;;;;6.05;3.45;;;;;;;;;;5114587;28;20124;-56
2023/10/16 01:21:14;;;;;;;7.18;4.07;;;;;;;;;;5114449;28;20509;-55
2023/10/16 01:23:44;;;;;;;9.27;3.22;;;;;;;;;;5114343;28;20055;-54
2023/10/16 01:26:13;;;;;;;6.88;3.40;;;;;;;;;;5114420;28;20482;-53
2023/10/16 01:28:40;;;;;;;6.22;3.45;;;;;;;;;;5114707;28;20568;-53
2023/10/16 01:31:07;;;;;;;5.65;3.53;;;;;;;;;;5095824;28;20220;-55
2023/10/16 01:33:34;;;;;;;7.35;3.53;;;;;;;;;;5107630;28;20039;-53
2023/10/16 01:36:00;;;;;;;5.75;3.58;;;;;;;;;;5114166;28;20513;-53
2023/10/16 01:38:28;;;;;;;6.28;3.10;;;;;;;;;;5114101;28;20071;-54
2023/10/16 01:41:07;;;;;;;6.57;3.58;;;;;;;;;;5113999;28;20551;-53
2023/10/16 01:43:34;;;;;;;7.78;3.70;;;;;;;;;;5114111;28;20570;-51
2023/10/16 01:46:03;;;;;;;9.30;5.15;;;;;;;;;;5113988;28;20132;-54
2023/10/16 01:48:30;;;;;;;7.65;4.88;;;;;;;;;;5113929;28;20039;-52
2023/10/16 01:50:57;;;;;;;7.05;4.55;;;;;;;;;;5113815;28;20047;-52
2023/10/16 01:53:26;;;;;;;8.80;5.43;;;;;;;;;;5113331;28;20046;-50
2023/10/16 01:55:54;;;;;;;9.30;4.80;;;;;;;;;;5114033;28;20164;-54
2023/10/16 01:58:23;;;;;;;6.00;3.90;;;;;;;;;;5113865;28;20134;-56
2023/10/16 02:00:52;;;;;;;6.47;4.20;;;;;;;;;;5113562;28;20077;-54
2023/10/16 02:03:19;;;;;;;8.70;4.18;;;;;;;;;;5113276;28;20614;-53
2023/10/16 02:05:46;;;;;;;6.65;4.20;;;;;;;;;;5113411;28;20046;-54
2023/10/16 02:08:14;;;;;;;6.45;4.05;;;;;;;;;;5113514;28;20085;-51
2023/10/16 02:10:41;;;;;;;5.72;4.00;;;;;;;;;;5113563;28;20488;-52
2023/10/16 02:13:08;;;;;;;7.68;4.28;;;;;;;;;;5113065;28;20048;-50
2023/10/16 02:15:37;;;;;;;5.60;3.67;;;;;;;;;;5113492;28;20122;-50
2023/10/16 02:18:05;;;;;;;6.80;4.07;;;;;;;;;;5113273;28;20071;-54
2023/10/16 02:20:36;;;;;;;9.00;4.60;;;;;;;;;;5111807;28;20048;-55
2023/10/16 02:23:06;;;;;;;6.22;3.85;;;;;;;;;;5111125;28;20035;-50
2023/10/16 02:25:34;;;;;;;8.70;4.43;;;;;;;;;;5099771;28;20048;-53
2023/10/16 02:28:00;;;;;;;9.50;4.32;;;;;;;;;;5092577;28;20070;-51
2023/10/16 02:30:35;;;;;;;8.07;4.60;;;;;;;;;;5105076;28;20134;-53
2023/10/16 02:33:18;;;;;;;7.47;4.43;;;;;;;;;;5112545;28;20078;-51
2023/10/16 02:35:48;;;;;;;7.95;4.72;;;;;;;;;;5112897;28;20052;-54
2023/10/16 02:38:23;;;;;;;8.77;3.93;;;;;;;;;;5112875;28;20576;-53
2023/10/16 02:40:50;;;;;;;6.38;4.20;;;;;;;;;;5112817;28;20069;-56
2023/10/16 02:43:18;;;;;;;6.57;3.90;;;;;;;;;;5112318;28;20047;-53
2023/10/16 02:45:47;;;;;;;7.63;4.25;;;;;;;;;;5112912;28;20690;-55
2023/10/16 02:48:16;;;;;;;6.97;3.90;;;;;;;;;;5112455;28;20130;-54
2023/10/16 02:50:49;;;;;;;6.82;4.15;;;;;;;;;;5112633;28;20418;-54
2023/10/16 02:53:17;;;;;;;7.50;4.03;;;;;;;;;;5112311;28;20047;-53
2023/10/16 02:55:45;;;;;;;7.78;4.45;;;;;;;;;;5112649;28;20125;-52
2023/10/16 02:58:11;;;;;;;6.38;3.92;;;;;;;;;;5112371;28;20048;-52
2023/10/16 03:00:43;;;;;;;5.78;3.67;;;;;;;;;;5112309;28;20105;-55
2023/10/16 03:03:10;;;;;;;5.68;4.13;;;;;;;;;;5112011;28;20509;-52
2023/10/16 03:05:38;;;;;;;6.82;3.75;;;;;;;;;;5112236;28;20047;-55
2023/10/16 03:08:08;;;;;;;6.30;4.13;;;;;;;;;;5111737;28;20043;-52
2023/10/16 03:10:36;;;;;;;7.05;4.00;;;;;;;;;;5112135;28;20396;-54
2023/10/16 03:13:05;;;;;;;5.65;3.63;;;;;;;;;;5110771;28;20035;-53
2023/10/16 03:15:38;;;;;;;6.53;3.70;;;;;;;;;;5112181;28;20665;-53
2023/10/16 03:18:10;;;;;;;7.43;3.97;;;;;;;;;;5108773;28;20067;-53
2023/10/16 03:20:38;;;;;;;8.95;3.80;;;;;;;;;;5105477;28;20047;-54
2023/10/16 03:23:07;;;;;;;6.45;3.78;;;;;;;;;;5111608;28;20039;-53
2023/10/16 03:28:14;;;;;;;7.05;3.60;;;;;;;;;;5111646;28;20112;-52
2023/10/16 03:30:42;;;;;;;6.85;4.03;;;;;;;;;;5111901;28;20095;-50
2023/10/16 03:33:13;;;;;;;6.18;3.42;;;;;;;;;;5111707;28;20048;-51
2023/10/16 03:35:44;;;;;;;7.20;4.10;;;;;;;;;;5111713;28;20093;-51
2023/10/16 03:38:11;;;;;;;5.78;3.53;;;;;;;;;;5112054;28;20123;-50
2023/10/16 03:40:38;;;;;;;8.38;3.92;;;;;;;;;;5112165;28;20057;-52
2023/10/16 03:43:05;;;;;;;8.60;4.25;;;;;;;;;;5111541;28;20488;-52
2023/10/16 03:45:32;;;;;;;8.07;4.63;;;;;;;;;;5111886;28;20040;-52
2023/10/16 03:48:00;;;;;;;9.60;4.82;;;;;;;;;;5111721;28;20542;-52
2023/10/16 03:50:34;;;;;;;7.20;4.40;;;;;;;;;;5111814;28;20043;-54
2023/10/16 03:53:02;;;;;;;7.57;4.50;;;;;;;;;;5111593;28;20058;-51
2023/10/16 03:55:32;;;;;;;7.28;4.38;;;;;;;;;;5111948;28;20041;-51
2023/10/16 03:57:58;;;;;;;8.95;4.72;;;;;;;;;;5111707;28;20051;-54
2023/10/16 04:00:26;;;;;;;7.60;4.25;;;;;;;;;;5111397;28;20500;-51
2023/10/16 04:02:53;;;;;;;8.60;3.90;;;;;;;;;;5111556;28;20124;-50
2023/10/16 04:05:29;;;;;;;7.68;4.15;;;;;;;;;;5111726;28;20556;-53
2023/10/16 04:07:56;;;;;;;7.90;4.28;;;;;;;;;;5111687;28;20418;-52
2023/10/16 04:10:29;;;;;;;7.85;4.50;;;;;;;;;;5111711;28;20515;-52
2023/10/16 04:12:55;;;;;;;8.55;4.10;;;;;;;;;;5111474;28;20075;-53
2023/10/16 04:15:47;;;;;;;6.97;3.58;;;;;;;;;;5111877;28;20157;-50
2023/10/16 04:18:27;;;;;;;7.05;3.83;;;;;;;;;;5100852;28;20139;-52
2023/10/16 04:20:56;;;;;;;7.18;4.05;;;;;;;;;;5092349;28;20094;-51
2023/10/16 04:23:35;;;;;;;4.90;3.60;;;;;;;;;;5098954;28;20135;-52
2023/10/16 04:31:44;;;;;;;8.02;4.28;;;;;;;;;;5107000;28;20048;-51
2023/10/16 04:34:13;;;;;;;8.60;4.20;;;;;;;;;;5115233;28;20048;-51
2023/10/16 04:36:52;;;;;;;11.80;4.25;;;;;;;;;;5115132;28;20486;-51
2023/10/16 04:40:45;;;;;;;8.82;3.70;;;;;;;;;;5115320;28;20143;-51
2023/10/16 04:47:48;;;;;;;7.25;3.80;;;;;;;;;;5100588;28;20519;-50
2023/10/16 04:50:15;;;;;;;6.40;3.50;;;;;;;;;;5112496;28;20040;-50
2023/10/16 04:55:52;;;;;;;8.45;4.65;;;;;;;;;;5095025;28;20048;-51
2023/10/16 04:58:39;;;;;;;7.22;3.80;;;;;;;;;;5110381;28;20097;-50
2023/10/16 05:06:49;;;;;;;7.00;4.00;;;;;;;;;;5103006;28;20051;-57
2023/10/16 05:15:20;;;;;;;7.15;4.43;;;;;;;;;;5104719;27;20419;-52
2023/10/16 06:15:20;;;;;;;10.10;5.10;;;;;;;;;;5094532;28;20047;-53
2023/10/16 06:17:47;;;;;;;10.32;5.72;;;;;;;;;;5093149;28;20054;-55
2023/10/16 06:20:20;;;;;;;10.15;5.82;;;;;;;;;;5093235;28;20135;-48
2023/10/16 06:22:51;;;;;;;9.55;5.80;;;;;;;;;;5092608;28;20105;-49
2023/10/16 06:25:19;;;;;;;9.80;5.95;;;;;;;;;;5093095;28;20048;-52
2023/10/16 06:27:47;;;;;;;8.85;5.40;;;;;;;;;;5093034;28;20044;-50
2023/10/16 06:30:19;;;;;;;7.43;5.32;;;;;;;;;;5093065;28;20055;-50
2023/10/16 06:32:49;;;;;;;10.82;6.13;;;;;;;;;;5095976;27;20100;-51
2023/10/16 06:35:18;;;;;;;10.15;5.55;;;;;;;;;;5105955;28;20104;-53
2023/10/16 06:37:51;;;;;;;11.30;6.53;;;;;;;;;;5103280;27;20051;-49
2023/10/16 06:40:24;;;;;;;12.45;6.20;;;;;;;;;;5097345;27;20093;-51
2023/10/16 06:42:54;;;;;;;10.60;6.45;;;;;;;;;;5100402;28;20082;-53
2023/10/16 06:45:27;;;;;;;12.30;5.85;;;;;;;;;;5101613;28;20044;-54
2023/10/16 06:47:58;;;;;;;12.50;6.15;;;;;;;;;;5099191;27;20043;-53
2023/10/16 06:50:42;;;;;;;8.93;5.20;;;;;;;;;;5097266;27;20044;-50
2023/10/16 06:53:09;;;;;;;8.70;5.47;;;;;;;;;;5108038;27;20051;-54
2023/10/16 06:55:35;;;;;;;9.95;5.80;;;;;;;;;;5099565;28;20135;-51
2023/10/16 06:58:02;;;;;;;10.45;5.22;;;;;;;;;;5092452;28;20044;-54
2023/10/16 07:00:32;;;;;;;10.80;5.85;;;;;;;;;;5092543;28;20131;-52
2023/10/16 07:03:01;;;;;;;10.10;5.78;;;;;;;;;;5092262;28;20055;-50
2023/10/16 07:05:43;;;;;;;9.55;5.88;;;;;;;;;;5104943;28;20047;-50
2023/10/16 07:08:10;;;;;;;9.98;5.25;;;;;;;;;;5110290;28;20598;-53
2023/10/16 07:10:40;;;;;;;10.30;5.32;;;;;;;;;;5112186;28;20495;-50
2023/10/16 07:13:07;;;;;;;9.35;5.30;;;;;;;;;;5112337;28;20047;-50
2023/10/16 07:15:34;;;;;;;10.05;4.97;;;;;;;;;;5111492;28;20104;-51
2023/10/16 07:18:05;;;;;;;10.68;5.90;;;;;;;;;;5111827;28;20504;-51
2023/10/16 07:20:37;;;;;;;9.88;4.97;;;;;;;;;;5108071;28;20724;-54
2023/10/16 07:23:10;;;;;;;8.15;4.80;;;;;;;;;;5109373;28;20047;-50
2023/10/16 07:25:54;;;;;;;12.77;4.80;;;;;;;;;;5109766;28;20131;-50
2023/10/16 07:28:21;;;;;;;7.80;4.63;;;;;;;;;;5109678;28;20093;-51
2023/10/16 07:30:48;;;;;;;9.05;5.60;;;;;;;;;;5109336;28;20160;-51
2023/10/16 07:33:15;;;;;;;8.77;4.57;;;;;;;;;;5107605;28;20127;-50
2023/10/16 07:35:44;;;;;;;7.57;4.60;;;;;;;;;;5111187;28;20039;-52
2023/10/16 07:38:11;;;;;;;9.65;4.95;;;;;;;;;;5109661;28;20047;-49
2023/10/16 07:40:38;;;;;;;9.65;5.38;;;;;;;;;;5105329;28;20043;-52
2023/10/16 07:43:05;;;;;;;10.95;5.32;;;;;;;;;;5105235;28;20044;-49
2023/10/16 07:45:33;;;;;;;8.05;4.43;;;;;;;;;;5104285;28;20059;-50
2023/10/16 07:48:07;;;;;;;7.93;4.15;;;;;;;;;;5107341;28;20043;-50
2023/10/16 07:50:38;;;;;;;7.07;4.63;;;;;;;;;;5105092;28;20043;-51
2023/10/16 07:53:07;;;;;;;;;;;;;;;;;;5101934;28;20079;-57
2023/10/16 07:55:40;;;;;;;8.48;4.55;;;;;;;;;;5108072;28;19968;-54
2023/10/16 07:58:15;;;;;;;6.00;3.83;;;;;;;;;;5106967;28;20047;-52
2023/10/16 08:00:57;;;;;;;8.45;4.63;;;;;;;;;;5109286;28;20055;-54
2023/10/16 08:03:24;;;;;;;9.18;4.07;;;;;;;;;;5108326;28;20044;-53
2023/10/16 08:05:50;;;;;;;6.97;4.13;;;;;;;;;;5112820;28;20044;-54
2023/10/16 08:08:25;;;;;;;8.90;4.40;;;;;;;;;;5111842;28;20040;-56
2023/10/16 08:10:52;;;;;;;8.60;4.53;;;;;;;;;;5111465;28;20506;-50
2023/10/16 08:13:24;;;;;;;7.70;4.45;;;;;;;;;;5110252;28;20075;-55
2023/10/16 08:15:51;;;;;;;6.38;4.30;;;;;;;;;;5110033;28;20151;-54
2023/10/16 08:18:19;;;;;;;6.95;4.15;;;;;;;;;;5112060;28;20457;-51
2023/10/16 08:21:04;;;;;;;9.10;4.65;;;;;;;;;;5108222;28;20050;-54
2023/10/16 08:23:35;;;;;;;8.88;4.55;;;;;;;;;;5111967;28;20043;-53
2023/10/16 08:26:04;;;;;;;7.68;4.30;;;;;;;;;;5111878;28;20465;-51
2023/10/16 08:28:35;;;;;;;10.02;4.10;;;;;;;;;;5108922;28;20048;-57
2023/10/16 08:31:10;;;;;;;6.40;4.05;;;;;;;;;;5107904;28;20058;-53
2023/10/16 08:33:37;;;;;;;8.70;4.47;;;;;;;;;;5109284;28;20400;-50
2023/10/16 08:36:07;;;;;;;9.60;5.65;;;;;;;;;;5110290;28;20071;-52
2023/10/16 08:38:36;;;;;;;8.70;5.03;;;;;;;;;;5106429;28;20047;-54
2023/10/16 08:41:14;;;;;;;9.45;4.22;;;;;;;;;;5107489;28;20445;-53
2023/10/16 08:43:53;;;;;;;9.35;4.75;;;;;;;;;;5111243;28;20128;-49
2023/10/16 08:46:30;;;;;;;8.07;4.63;;;;;;;;;;5107943;28;20650;-49
2023/10/16 08:48:58;;;;;;;7.88;4.70;;;;;;;;;;5110410;28;20056;-56
2023/10/16 08:51:28;;;;;;;7.28;4.18;;;;;;;;;;5107242;28;20513;-51
2023/10/16 08:54:01;;;;;;;6.47;4.27;;;;;;;;;;5109927;28;20116;-51
2023/10/16 08:56:27;;;;;;;9.23;4.95;;;;;;;;;;5108738;28;20044;-52
2023/10/16 08:58:56;;;;;;;7.57;4.00;;;;;;;;;;5108864;28;20038;-54
2023/10/16 09:01:27;;;;;;;8.73;4.57;;;;;;;;;;5110433;28;20075;-53
2023/10/16 09:04:01;;;;;;;8.30;4.72;;;;;;;;;;5109001;28;20040;-49
2023/10/16 09:06:29;;;;;;;8.95;4.65;;;;;;;;;;5107540;28;20052;-56
2023/10/16 09:08:58;;;;;;;8.45;4.50;;;;;;;;;;5109587;28;20143;-51
2023/10/16 09:11:26;;;;;;;7.65;4.25;;;;;;;;;;5107189;28;20239;-53
2023/10/16 09:13:53;;;;;;;6.88;4.20;;;;;;;;;;5108988;28;20070;-56
2023/10/16 09:16:21;;;;;;;8.95;4.28;;;;;;;;;;5109123;28;20146;-51
2023/10/16 09:18:48;;;;;;;7.43;4.22;;;;;;;;;;5110621;28;20514;-55
2023/10/16 09:21:22;;;;;;;7.80;4.30;;;;;;;;;;5108910;28;20048;-54
2023/10/16 09:23:52;;;;;;;6.93;4.10;;;;;;;;;;5109348;28;20513;-51
2023/10/16 09:26:23;;;;;;;8.23;4.18;;;;;;;;;;5107474;28;20040;-53
2023/10/16 09:28:53;;;;;;;6.55;3.95;;;;;;;;;;5104082;28;20044;-54
2023/10/16 09:31:21;;;;;;;6.93;4.47;;;;;;;;;;5107282;28;20051;-57
2023/10/16 09:33:49;;;;;;;6.47;3.85;;;;;;;;;;5105399;28;20044;-57
2023/10/16 09:36:20;;;;;;;6.72;3.85;;;;;;;;;;5106559;28;20116;-55
2023/10/16 09:38:51;;;;;;;7.00;4.57;;;;;;;;;;5105765;28;20043;-54
2023/10/16 09:44:09;;;;;;;8.55;3.70;;;;;;;;;;5099285;28;20246;-56
2023/10/16 09:46:55;;;;;;;6.88;4.03;;;;;;;;;;5104238;28;20130;-54
2023/10/16 09:49:22;;;;;;;8.25;4.25;;;;;;;;;;5107571;28;20048;-55
2023/10/16 09:51:50;;;;;;;7.50;4.60;;;;;;;;;;5106832;28;20050;-54
2023/10/16 09:54:21;;;;;;;6.65;4.00;;;;;;;;;;5103788;28;20358;-56
2023/10/16 09:56:58;;;;;;;7.45;4.03;;;;;;;;;;5109469;28;20130;-53
2023/10/16 09:59:31;;;;;;;7.45;3.88;;;;;;;;;;5110729;28;20436;-54
2023/10/16 10:02:05;;;;;;;7.68;4.80;;;;;;;;;;5109764;28;20052;-55
2023/10/16 10:04:33;;;;;;;8.35;4.78;;;;;;;;;;5106578;28;20052;-56
2023/10/16 10:07:03;;;;;;;9.30;4.00;;;;;;;;;;5109474;28;20083;-52
2023/10/16 10:09:41;;;;;;;8.25;4.00;;;;;;;;;;5103185;28;20069;-54
2023/10/16 10:12:22;;;;;;;8.02;3.95;;;;;;;;;;5107683;28;20035;-50
2023/10/16 10:15:01;;;;;;;5.15;3.38;;;;;;;;;;5107912;28;20044;-53
2023/10/16 10:17:29;;;;;;;7.18;3.80;;;;;;;;;;5099690;28;20487;-53
2023/10/16 10:19:58;;;;;;;7.65;3.97;;;;;;;;;;5104392;28;20043;-53
2023/10/16 10:22:35;;;;;;;6.05;4.18;;;;;;;;;;5102043;28;20112;-53
2023/10/16 10:25:11;;;;;;;8.40;4.43;;;;;;;;;;5106139;28;20078;-52
2023/10/16 10:27:43;;;;;;;8.00;3.88;;;;;;;;;;5102440;28;20044;-63
2023/10/16 10:30:16;;;;;;;12.85;4.30;;;;;;;;;;5106321;28;20555;-51
2023/10/16 10:32:44;;;;;;;6.25;3.70;;;;;;;;;;5109138;28;20586;-51
2023/10/16 10:35:23;;;;;;;6.63;4.03;;;;;;;;;;5108309;28;20047;-54
2023/10/16 10:37:51;;;;;;;6.82;4.32;;;;;;;;;;5106775;28;20097;-52
2023/10/16 10:40:21;;;;;;;7.70;4.22;;;;;;;;;;5109562;28;20051;-54
2023/10/16 10:42:54;;;;;;;7.55;4.60;;;;;;;;;;5105425;28;20080;-60
2023/10/16 10:45:33;;;;;;;8.73;4.28;;;;;;;;;;5104393;28;20388;-62
2023/10/16 10:48:06;;;;;;;9.88;4.10;;;;;;;;;;5107012;28;20055;-58
2023/10/16 10:50:33;;;;;;;6.20;3.70;;;;;;;;;;5107884;28;20048;-53
2023/10/16 10:53:03;;;;;;;5.32;3.45;;;;;;;;;;5103605;28;20138;-55
2023/10/16 10:55:29;;;;;;;7.25;4.07;;;;;;;;;;5107532;28;20369;-55
2023/10/16 10:58:01;;;;;;;7.03;3.97;;;;;;;;;;5105622;28;20042;-54
2023/10/16 11:00:49;;;;;;;6.47;4.22;;;;;;;;;;5106587;28;20257;-50
2023/10/16 11:03:41;;;;;;;6.35;3.70;;;;;;;;;;5096649;28;20046;-56
2023/10/16 11:06:16;;;;;;;7.53;4.57;;;;;;;;;;5107891;28;20044;-51
2023/10/16 11:08:47;;;;;;;8.25;4.13;;;;;;;;;;5107914;28;20065;-52
2023/10/16 11:11:15;;;;;;;6.45;3.85;;;;;;;;;;5108889;28;20130;-52
2023/10/16 11:13:50;;;;;;;6.82;4.15;;;;;;;;;;5107917;28;20056;-52
2023/10/16 11:16:17;;;;;;;7.05;4.10;;;;;;;;;;5105399;28;20482;-56
2023/10/16 11:18:57;;;;;;;6.10;3.72;;;;;;;;;;5108168;28;20513;-56
2023/10/16 11:21:25;;;;;;;5.97;3.00;;;;;;;;;;5104720;28;20039;-57
2023/10/16 11:23:55;;;;;;;7.05;3.83;;;;;;;;;;5104387;28;20040;-54
2023/10/16 11:26:22;;;;;;;7.35;3.20;;;;;;;;;;5105743;28;20047;-51
2023/10/16 11:28:51;;;;;;;6.93;3.97;;;;;;;;;;5105138;28;20118;-54
2023/10/16 11:31:19;;;;;;;6.60;3.40;;;;;;;;;;5105784;28;20048;-56
2023/10/16 11:34:01;;;;;;;7.35;3.50;;;;;;;;;;5108483;28;20078;-54
2023/10/16 11:36:29;;;;;;;6.53;3.92;;;;;;;;;;5103746;28;20288;-52
2023/10/16 11:38:59;;;;;;;10.77;5.25;;;;;;;;;;5105637;28;20093;-55
2023/10/16 11:41:26;;;;;;;6.53;3.78;;;;;;;;;;5104648;28;20084;-54
2023/10/16 11:43:56;;;;;;;6.40;3.33;;;;;;;;;;5098956;28;20072;-52
2023/10/16 11:46:29;;;;;;;6.80;3.70;;;;;;;;;;5104257;28;20042;-50
2023/10/16 11:49:26;;;;;;;6.53;3.50;;;;;;;;;;5107019;28;20492;-57
2023/10/16 11:51:58;;;;;;;14.43;6.80;;;;;;;;;;5107835;28;20411;-54
2023/10/16 11:54:28;;;;;;;6.67;3.20;;;;;;;;;;5108493;28;20058;-54
2023/10/16 11:56:59;;;;;;;7.18;3.33;;;;;;;;;;5106949;28;20475;-53
2023/10/16 11:59:29;;;;;;;9.05;3.95;;;;;;;;;;5101544;28;20101;-54
2023/10/16 12:02:00;;;;;;;7.35;3.80;;;;;;;;;;5107744;28;20040;-54
2023/10/16 12:04:27;;;;;;;;;;;;;;;;;;5107801;28;20051;-53
2023/10/16 12:06:54;;;;;;;5.13;2.75;;;;;;;;;;5107039;28;19920;-56
2023/10/16 12:09:21;;;;;;;5.57;3.22;;;;;;;;;;5104370;28;20424;-55
2023/10/16 12:11:49;;;;;;;5.30;2.92;;;;;;;;;;5108042;28;20046;-57
2023/10/16 12:14:16;;;;;;;7.30;3.78;;;;;;;;;;5108554;28;20055;-51
2023/10/16 12:16:45;;;;;;;7.20;3.63;;;;;;;;;;5108314;28;20043;-50
2023/10/16 12:19:14;;;;;;;5.87;3.30;;;;;;;;;;5106493;28;20036;-53
2023/10/16 12:21:40;;;;;;;5.95;3.15;;;;;;;;;;5105917;28;20079;-52
2023/10/16 12:24:09;;;;;;;6.28;3.10;;;;;;;;;;5105244;28;20480;-50
2023/10/16 12:26:36;;;;;;;6.10;3.25;;;;;;;;;;5106692;28;20109;-54
2023/10/16 12:29:03;;;;;;;5.80;2.95;;;;;;;;;;5105407;28;20047;-53
2023/10/16 12:31:30;;;;;;;5.28;3.00;;;;;;;;;;5102200;28;20044;-53
2023/10/16 12:33:59;;;;;;;5.88;2.92;;;;;;;;;;5105407;28;20067;-54
2023/10/16 12:36:26;;;;;;;5.35;3.08;;;;;;;;;;5104270;28;20036;-54
2023/10/16 12:38:54;;;;;;;5.55;3.10;;;;;;;;;;5105278;28;20138;-52
2023/10/16 12:41:21;;;;;;;6.22;2.97;;;;;;;;;;5106133;28;20039;-51
2023/10/16 12:43:48;;;;;;;7.82;3.00;;;;;;;;;;5110308;28;20436;-51
2023/10/16 12:46:15;;;;;;;5.05;3.22;;;;;;;;;;5108779;28;20406;-50
2023/10/16 12:48:43;;;;;;;5.43;2.83;;;;;;;;;;5109308;28;20525;-52
2023/10/16 12:51:11;;;;;;;6.55;3.03;;;;;;;;;;5106559;28;20047;-51
2023/10/16 12:53:38;;;;;;;5.65;3.10;;;;;;;;;;5109806;28;20426;-51
2023/10/16 12:56:06;;;;;;;6.40;2.33;;;;;;;;;;5110453;28;20044;-52
2023/10/16 12:58:33;;;;;;;6.03;2.67;;;;;;;;;;5111527;28;20478;-49
2023/10/16 13:01:00;;;;;;;5.15;2.97;;;;;;;;;;5110375;28;20044;-50
2023/10/16 13:03:27;;;;;;;5.72;2.83;;;;;;;;;;5106428;28;20126;-52
2023/10/16 13:05:54;;;;;;;6.28;3.50;;;;;;;;;;5106394;28;20139;-51
2023/10/16 13:08:22;;;;;;;5.32;3.00;;;;;;;;;;5109282;28;20066;-50
2023/10/16 13:10:51;;;;;;;6.97;2.60;;;;;;;;;;5110454;28;20483;-50
2023/10/16 13:13:21;;;;;;;5.97;2.70;;;;;;;;;;5108218;28;20044;-49
2023/10/16 13:15:57;;;;;;;4.57;2.10;;;;;;;;;;5109465;28;20055;-51
2023/10/16 13:18:28;;;;;;;5.97;2.45;;;;;;;;;;5110115;28;20062;-53
2023/10/16 13:21:04;;;;;;;;;;;;;;;;;;5107609;28;20402;-50
2023/10/16 13:23:34;;;;;;;6.38;2.72;;;;;;;;;;5105886;28;19973;-50
2023/10/16 13:26:01;;;;;;;4.38;2.33;;;;;;;;;;5110336;28;20039;-50
2023/10/16 13:28:29;;;;;;;7.25;2.60;;;;;;;;;;5100688;28;20579;-54
2023/10/16 13:30:56;;;;;;;4.35;2.88;;;;;;;;;;5110691;28;20044;-50
2023/10/16 13:33:22;;;;;;;6.03;2.78;;;;;;;;;;5108548;28;20044;-54
2023/10/16 13:35:50;;;;;;;6.07;3.00;;;;;;;;;;5110537;28;20062;-55
2023/10/16 13:38:18;;;;;;;5.95;3.05;;;;;;;;;;5107559;28;20089;-53
2023/10/16 13:40:46;;;;;;;5.75;3.33;;;;;;;;;;5108892;28;20054;-52
2023/10/16 13:43:17;;;;;;;4.78;3.13;;;;;;;;;;5107996;28;20499;-50
2023/10/16 13:45:44;;;;;;;6.13;3.33;;;;;;;;;;5108248;28;20040;-50
2023/10/16 13:48:11;;;;;;;7.85;3.47;;;;;;;;;;5110501;28;20044;-51
2023/10/16 13:50:40;;;;;;;5.57;3.00;;;;;;;;;;5105153;28;20418;-50
2023/10/16 13:53:08;;;;;;;7.00;3.30;;;;;;;;;;5099502;28;20059;-52
2023/10/16 13:55:35;;;;;;;5.05;3.08;;;;;;;;;;5102071;28;20059;-53
2023/10/16 13:58:05;;;;;;;7.65;3.88;;;;;;;;;;5100715;28;20479;-53
2023/10/16 14:00:35;;;;;;;4.57;3.28;;;;;;;;;;5103505;28;20051;-51
2023/10/16 14:03:08;;;;;;;5.10;3.15;;;;;;;;;;5103218;28;20453;-51
2023/10/16 14:05:38;;;;;;;6.22;2.63;;;;;;;;;;5108374;28;20109;-54
2023/10/16 14:08:09;;;;;;;6.18;3.10;;;;;;;;;;5108915;28;20052;-53
2023/10/16 14:10:36;;;;;;;6.88;3.60;;;;;;;;;;5109147;28;20138;-53
2023/10/16 14:13:11;;;;;;;6.43;3.90;;;;;;;;;;5109356;28;20503;-54
2023/10/16 14:15:41;;;;;;;6.20;3.95;;;;;;;;;;5106892;27;20043;-52
2023/10/16 14:18:14;;;;;;;6.35;3.95;;;;;;;;;;5106595;28;20491;-50
2023/10/16 14:20:45;;;;;;;5.85;3.75;;;;;;;;;;5108578;28;20132;-54
2023/10/16 14:23:12;;;;;;;4.90;3.40;;;;;;;;;;5105482;28;20112;-51
2023/10/16 14:25:45;;;;;;;6.05;3.90;;;;;;;;;;5107934;28;20078;-53
2023/10/16 14:28:32;;;;;;;7.15;3.85;;;;;;;;;;5105170;28;20043;-52
2023/10/16 14:31:00;;;;;;;7.15;3.50;;;;;;;;;;5106337;28;20052;-53
2023/10/16 14:33:30;;;;;;;5.25;3.25;;;;;;;;;;5109046;28;20403;-53
2023/10/16 14:35:57;;;;;;;6.15;2.97;;;;;;;;;;5101626;28;20051;-51
2023/10/16 14:38:24;;;;;;;5.63;3.13;;;;;;;;;;5107282;28;20063;-51
2023/10/16 14:40:50;;;;;;;8.00;4.40;;;;;;;;;;5104733;28;20130;-56
2023/10/16 14:43:19;;;;;;;7.97;4.32;;;;;;;;;;5106062;28;20050;-51
2023/10/16 14:45:48;;;;;;;5.97;4.10;;;;;;;;;;5108013;28;20071;-52
2023/10/16 14:48:15;;;;;;;5.65;4.07;;;;;;;;;;5105440;28;20483;-55
2023/10/16 14:50:42;;;;;;;7.63;4.93;;;;;;;;;;5107530;28;20092;-52
2023/10/16 14:53:09;;;;;;;7.28;4.70;;;;;;;;;;5104244;28;20065;-53
2023/10/16 14:55:36;;;;;;;5.63;5.03;;;;;;;;;;5104415;28;20052;-53
2023/10/16 14:58:05;;;;;;;7.20;5.65;;;;;;;;;;5104140;28;20065;-50
2023/10/16 15:00:37;;;;;;;9.40;5.57;;;;;;;;;;5108256;28;20082;-52
2023/10/16 15:03:08;;;;;;;7.15;5.35;;;;;;;;;;5105279;28;20071;-52
2023/10/16 15:05:35;;;;;;;7.45;5.38;;;;;;;;;;5103323;28;20490;-54
2023/10/16 15:08:04;;;;;;;7.65;5.38;;;;;;;;;;5103273;28;20075;-54
2023/10/16 15:10:32;;;;;;;6.43;4.45;;;;;;;;;;5101937;28;20044;-52
2023/10/16 15:12:59;;;;;;;7.65;5.80;;;;;;;;;;5107782;28;20491;-52
2023/10/16 15:15:26;;;;;;;6.60;4.95;;;;;;;;;;5105972;28;20089;-53
2023/10/16 15:17:57;;;;;;;8.15;5.32;;;;;;;;;;5108206;28;20698;-55
2023/10/16 15:20:24;;;;;;;8.15;6.63;;;;;;;;;;5107130;28;20130;-51
2023/10/16 15:22:51;;;;;;;8.52;6.20;;;;;;;;;;5105160;28;20036;-52
2023/10/16 15:25:18;;;;;;;8.93;6.15;;;;;;;;;;5107449;28;20039;-53
2023/10/16 15:27:46;;;;;;;8.55;6.13;;;;;;;;;;5106201;28;20046;-55
2023/10/16 15:30:14;;;;;;;8.07;6.40;;;;;;;;;;5106734;28;20047;-51
2023/10/16 15:32:42;;;;;;;7.53;5.85;;;;;;;;;;5104914;28;20052;-53
2023/10/16 15:35:10;;;;;;;9.07;6.40;;;;;;;;;;5107166;28;20039;-52
2023/10/16 15:37:38;;;;;;;8.20;6.45;;;;;;;;;;5106230;28;20093;-53
2023/10/16 15:40:06;;;;;;;7.45;6.10;;;;;;;;;;5108223;28;20039;-52
2023/10/16 15:42:33;;;;;;;8.65;6.60;;;;;;;;;;5103665;28;20574;-52
2023/10/16 15:45:00;;;;;;;10.82;6.93;;;;;;;;;;5103810;28;20067;-51
2023/10/16 15:47:27;;;;;;;9.93;6.65;;;;;;;;;;5104151;28;20491;-50
2023/10/16 15:49:54;;;;;;;8.82;6.25;;;;;;;;;;5105506;28;20468;-55
2023/10/16 15:52:22;;;;;;;9.57;6.88;;;;;;;;;;5105501;28;20039;-51
2023/10/16 15:54:50;;;;;;;9.35;6.43;;;;;;;;;;5105657;28;20052;-53
2023/10/16 15:57:17;;;;;;;9.35;6.20;;;;;;;;;;5101710;28;20040;-52
2023/10/16 15:59:44;;;;;;;7.57;6.65;;;;;;;;;;5104297;28;20534;-51
2023/10/16 16:02:11;;;;;;;9.35;6.68;;;;;;;;;;5106480;28;20043;-52
2023/10/16 16:04:39;;;;;;;8.48;6.47;;;;;;;;;;5108228;28;20044;-53
2023/10/16 16:07:07;;;;;;;8.98;6.28;;;;;;;;;;5108223;28;20078;-52
2023/10/16 16:09:36;;;;;;;8.45;6.05;;;;;;;;;;5103412;28;20059;-53
2023/10/16 16:12:03;;;;;;;9.60;6.70;;;;;;;;;;5108240;28;20043;-54
2023/10/16 16:14:31;;;;;;;10.55;6.50;;;;;;;;;;5107885;28;20055;-55
2023/10/16 16:16:58;;;;;;;14.57;6.18;;;;;;;;;;5111450;28;20071;-52
2023/10/16 16:19:25;;;;;;;9.48;5.72;;;;;;;;;;5107813;28;20050;-54
2023/10/16 16:21:52;;;;;;;8.50;5.60;;;;;;;;;;5107302;28;20047;-52
2023/10/16 16:24:19;;;;;;;10.23;5.68;;;;;;;;;;5104021;28;20105;-52
2023/10/16 16:26:49;;;;;;;10.00;5.60;;;;;;;;;;5109281;28;20057;-52
2023/10/16 16:29:15;;;;;;;7.97;5.13;;;;;;;;;;5104424;28;20047;-55